sensor_id;sensor_type;location;lat;lon;timestamp;temperature;humidity
5492;DHT22;2768;53.540;10.224;2023-03-23T00:05:46;11.60;1.00
5492;DHT22;2768;53.540;10.224;2023-03-23T00:11:42;11.60;1.00
5492;DHT22;2768;53.540;10.224;2023-03-23T00:17:34;11.40;1.00
5492;DHT22;2768;53.540;10.224;2023-03-23T00:23:28;11.30;1.00
5492;DHT22;2768;53.540;10.224;2023-03-23T00:29:22;11.20;1.00
5492;DHT22;2768;53.540;10.224;2023-03-23T00:35:17;11.10;1.00
5492;DHT22;2768;53.540;10.224;2023-03-23T00:41:12;11.20;1.00
5492;DHT22;2768;53.540;10.224;2023-03-23T00:47:06;11.10;1.00
5492;DHT22;2768;53.540;10.224;2023-03-23T00:52:59;11.10;1.00
5492;DHT22;2768;53.540;10.224;2023-03-23T00:58:53;10.90;1.00
5492;DHT22;2768;53.540;10.224;2023-03-23T01:04:45;10.90;1.00
5492;DHT22;2768;53.540;10.224;2023-03-23T01:10:42;10.90;21.40
5492;DHT22;2768;53.540;10.224;2023-03-23T01:16:36;10.90;36.70
5492;DHT22;2768;53.540;10.224;2023-03-23T01:22:28;10.80;57.20
5492;DHT22;2768;53.540;10.224;2023-03-23T01:28:21;10.80;78.20
5492;DHT22;2768;53.540;10.224;2023-03-23T01:34:14;10.80;92.90
5492;DHT22;2768;53.540;10.224;2023-03-23T01:40:07;10.70;99.00
5492;DHT22;2768;53.540;10.224;2023-03-23T01:46:00;10.80;99.90
5492;DHT22;2768;53.540;10.224;2023-03-23T01:51:56;10.70;99.90
5492;DHT22;2768;53.540;10.224;2023-03-23T01:57:51;10.70;99.90
5492;DHT22;2768;53.540;10.224;2023-03-23T02:03:45;10.80;99.90
5492;DHT22;2768;53.540;10.224;2023-03-23T02:09:40;10.80;99.90
5492;DHT22;2768;53.540;10.224;2023-03-23T02:15:40;10.70;99.90
5492;DHT22;2768;53.540;10.224;2023-03-23T02:21:58;10.70;99.90
5492;DHT22;2768;53.540;10.224;2023-03-23T02:28:31;10.80;99.90
5492;DHT22;2768;53.540;10.224;2023-03-23T02:34:35;10.70;99.90
5492;DHT22;2768;53.540;10.224;2023-03-23T02:40:35;10.70;99.90
5492;DHT22;2768;53.540;10.224;2023-03-23T02:46:30;10.70;99.90
5492;DHT22;2768;53.540;10.224;2023-03-23T02:52:27;10.80;99.90
5492;DHT22;2768;53.540;10.224;2023-03-23T02:58:21;10.80;99.90
5492;DHT22;2768;53.540;10.224;2023-03-23T03:04:17;10.80;99.90
5492;DHT22;2768;53.540;10.224;2023-03-23T03:10:16;10.80;99.90
5492;DHT22;2768;53.540;10.224;2023-03-23T03:16:18;10.80;99.90
5492;DHT22;2768;53.540;10.224;2023-03-23T03:22:14;10.80;99.90
5492;DHT22;2768;53.540;10.224;2023-03-23T03:28:09;10.90;99.90
5492;DHT22;2768;53.540;10.224;2023-03-23T03:34:07;10.90;99.90
5492;DHT22;2768;53.540;10.224;2023-03-23T03:40:00;10.90;99.90
5492;DHT22;2768;53.540;10.224;2023-03-23T03:45:54;10.90;99.90
5492;DHT22;2768;53.540;10.224;2023-03-23T03:51:46;10.90;99.90
5492;DHT22;2768;53.540;10.224;2023-03-23T03:57:45;10.90;99.90
5492;DHT22;2768;53.540;10.224;2023-03-23T04:03:45;10.90;99.90
5492;DHT22;2768;53.540;10.224;2023-03-23T04:09:46;10.90;99.90
5492;DHT22;2768;53.540;10.224;2023-03-23T04:15:42;10.90;99.90
5492;DHT22;2768;53.540;10.224;2023-03-23T04:21:36;10.90;99.90
5492;DHT22;2768;53.540;10.224;2023-03-23T04:27:28;10.90;99.90
5492;DHT22;2768;53.540;10.224;2023-03-23T04:33:25;10.90;99.90
5492;DHT22;2768;53.540;10.224;2023-03-23T04:39:20;11.00;99.90
5492;DHT22;2768;53.540;10.224;2023-03-23T04:45:14;11.00;99.90
5492;DHT22;2768;53.540;10.224;2023-03-23T04:51:06;11.00;99.90
5492;DHT22;2768;53.540;10.224;2023-03-23T04:57:02;11.00;99.90
5492;DHT22;2768;53.540;10.224;2023-03-23T05:02:56;11.00;99.90
5492;DHT22;2768;53.540;10.224;2023-03-23T05:08:52;11.10;99.90
5492;DHT22;2768;53.540;10.224;2023-03-23T05:14:48;11.10;99.90
5492;DHT22;2768;53.540;10.224;2023-03-23T05:20:44;11.20;96.00
5492;DHT22;2768;53.540;10.224;2023-03-23T05:26:43;11.20;78.20
5492;DHT22;2768;53.540;10.224;2023-03-23T05:32:44;11.20;71.80
5492;DHT22;2768;53.540;10.224;2023-03-23T05:39:03;11.20;65.90
5492;DHT22;2768;53.540;10.224;2023-03-23T05:45:20;11.20;56.50
5492;DHT22;2768;53.540;10.224;2023-03-23T05:51:17;11.20;50.90
5492;DHT22;2768;53.540;10.224;2023-03-23T05:57:10;11.20;46.60
5492;DHT22;2768;53.540;10.224;2023-03-23T06:03:12;11.20;38.40
5492;DHT22;2768;53.540;10.224;2023-03-23T06:09:28;11.20;33.00
5492;DHT22;2768;53.540;10.224;2023-03-23T06:15:48;11.20;21.20
5492;DHT22;2768;53.540;10.224;2023-03-23T06:21:58;11.30;13.50
5492;DHT22;2768;53.540;10.224;2023-03-23T06:28:17;11.20;5.90
5492;DHT22;2768;53.540;10.224;2023-03-23T06:34:12;11.30;1.90
5492;DHT22;2768;53.540;10.224;2023-03-23T06:40:27;11.20;1.00
5492;DHT22;2768;53.540;10.224;2023-03-23T06:46:22;11.20;1.00
5492;DHT22;2768;53.540;10.224;2023-03-23T06:52:34;11.20;1.00
5492;DHT22;2768;53.540;10.224;2023-03-23T06:58:27;11.20;1.00
5492;DHT22;2768;53.540;10.224;2023-03-23T07:04:21;11.30;1.00
5492;DHT22;2768;53.540;10.224;2023-03-23T07:10:32;11.30;1.00
5492;DHT22;2768;53.540;10.224;2023-03-23T07:16:26;11.40;1.00
5492;DHT22;2768;53.540;10.224;2023-03-23T07:22:20;11.50;1.00
5492;DHT22;2768;53.540;10.224;2023-03-23T07:28:19;11.60;1.00
5492;DHT22;2768;53.540;10.224;2023-03-23T07:34:13;11.60;1.00
5492;DHT22;2768;53.540;10.224;2023-03-23T07:40:16;11.70;1.00
5492;DHT22;2768;53.540;10.224;2023-03-23T07:46:12;11.80;1.00
5492;DHT22;2768;53.540;10.224;2023-03-23T07:52:13;11.90;1.00
5492;DHT22;2768;53.540;10.224;2023-03-23T07:58:07;11.90;1.00
5492;DHT22;2768;53.540;10.224;2023-03-23T08:04:00;11.90;1.00
5492;DHT22;2768;53.540;10.224;2023-03-23T08:10:04;11.90;1.00
5492;DHT22;2768;53.540;10.224;2023-03-23T08:16:19;11.90;1.00
5492;DHT22;2768;53.540;10.224;2023-03-23T08:22:24;12.00;1.00
5492;DHT22;2768;53.540;10.224;2023-03-23T08:28:30;12.00;1.00
5492;DHT22;2768;53.540;10.224;2023-03-23T08:34:24;11.90;1.00
5492;DHT22;2768;53.540;10.224;2023-03-23T08:40:34;11.80;1.00
5492;DHT22;2768;53.540;10.224;2023-03-23T08:46:46;11.70;1.00
5492;DHT22;2768;53.540;10.224;2023-03-23T08:52:58;11.70;1.00
5492;DHT22;2768;53.540;10.224;2023-03-23T08:59:09;11.70;1.00
5492;DHT22;2768;53.540;10.224;2023-03-23T09:05:20;11.70;1.00
5492;DHT22;2768;53.540;10.224;2023-03-23T09:11:29;11.70;1.00
5492;DHT22;2768;53.540;10.224;2023-03-23T09:17:21;11.70;1.00
5492;DHT22;2768;53.540;10.224;2023-03-23T09:23:13;11.90;1.00
5492;DHT22;2768;53.540;10.224;2023-03-23T09:29:07;12.00;1.00
5492;DHT22;2768;53.540;10.224;2023-03-23T09:34:59;11.90;1.00
5492;DHT22;2768;53.540;10.224;2023-03-23T09:41:12;11.90;1.00
5492;DHT22;2768;53.540;10.224;2023-03-23T09:47:12;11.80;1.00
5492;DHT22;2768;53.540;10.224;2023-03-23T09:53:13;11.80;1.00
5492;DHT22;2768;53.540;10.224;2023-03-23T09:59:12;11.90;1.00
5492;DHT22;2768;53.540;10.224;2023-03-23T10:05:26;11.90;1.00
5492;DHT22;2768;53.540;10.224;2023-03-23T10:11:27;12.00;1.00
5492;DHT22;2768;53.540;10.224;2023-03-23T10:17:26;12.50;1.00
5492;DHT22;2768;53.540;10.224;2023-03-23T10:23:43;12.40;1.00
5492;DHT22;2768;53.540;10.224;2023-03-23T10:29:39;12.40;1.00
5492;DHT22;2768;53.540;10.224;2023-03-23T10:35:37;12.70;1.00
5492;DHT22;2768;53.540;10.224;2023-03-23T10:41:32;12.80;1.00
5492;DHT22;2768;53.540;10.224;2023-03-23T10:47:24;12.60;1.00
5492;DHT22;2768;53.540;10.224;2023-03-23T10:53:19;12.50;1.00
5492;DHT22;2768;53.540;10.224;2023-03-23T10:59:15;12.40;1.00
5492;DHT22;2768;53.540;10.224;2023-03-23T11:05:18;12.40;99.90
5492;DHT22;2768;53.540;10.224;2023-03-23T11:11:15;12.40;99.90
5492;DHT22;2768;53.540;10.224;2023-03-23T11:17:23;12.50;1.00
5492;DHT22;2768;53.540;10.224;2023-03-23T11:23:21;12.50;1.00
5492;DHT22;2768;53.540;10.224;2023-03-23T11:29:17;12.60;1.00
5492;DHT22;2768;53.540;10.224;2023-03-23T11:35:16;12.60;1.00
5492;DHT22;2768;53.540;10.224;2023-03-23T11:41:11;12.60;1.00
5492;DHT22;2768;53.540;10.224;2023-03-23T11:47:08;12.70;1.00
5492;DHT22;2768;53.540;10.224;2023-03-23T11:53:12;12.80;1.00
5492;DHT22;2768;53.540;10.224;2023-03-23T11:59:11;12.80;1.00
5492;DHT22;2768;53.540;10.224;2023-03-23T12:05:30;13.10;1.00
5492;DHT22;2768;53.540;10.224;2023-03-23T12:11:30;12.80;1.00
5492;DHT22;2768;53.540;10.224;2023-03-23T12:17:33;12.70;1.00
5492;DHT22;2768;53.540;10.224;2023-03-23T12:23:35;12.80;1.00
5492;DHT22;2768;53.540;10.224;2023-03-23T12:29:39;12.70;1.00
5492;DHT22;2768;53.540;10.224;2023-03-23T12:35:40;12.60;1.00
5492;DHT22;2768;53.540;10.224;2023-03-23T12:41:41;12.50;1.00
5492;DHT22;2768;53.540;10.224;2023-03-23T12:47:39;12.40;1.00
5492;DHT22;2768;53.540;10.224;2023-03-23T12:53:41;12.40;1.00
5492;DHT22;2768;53.540;10.224;2023-03-23T12:59:40;12.50;1.00
5492;DHT22;2768;53.540;10.224;2023-03-23T13:05:40;12.60;1.00
5492;DHT22;2768;53.540;10.224;2023-03-23T13:11:37;12.60;1.00
5492;DHT22;2768;53.540;10.224;2023-03-23T13:17:37;13.30;1.00
5492;DHT22;2768;53.540;10.224;2023-03-23T13:23:36;14.60;1.00
5492;DHT22;2768;53.540;10.224;2023-03-23T13:29:30;14.00;99.90
5492;DHT22;2768;53.540;10.224;2023-03-23T13:35:23;13.60;99.90
5492;DHT22;2768;53.540;10.224;2023-03-23T13:41:19;13.50;99.90
5492;DHT22;2768;53.540;10.224;2023-03-23T13:47:26;13.60;99.90
5492;DHT22;2768;53.540;10.224;2023-03-23T13:53:25;13.40;99.90
5492;DHT22;2768;53.540;10.224;2023-03-23T13:59:32;13.40;99.90
5492;DHT22;2768;53.540;10.224;2023-03-23T14:05:32;14.10;99.90
5492;DHT22;2768;53.540;10.224;2023-03-23T14:11:27;14.70;99.90
5492;DHT22;2768;53.540;10.224;2023-03-23T14:17:25;15.00;99.90
5492;DHT22;2768;53.540;10.224;2023-03-23T14:23:19;14.30;99.90
5492;DHT22;2768;53.540;10.224;2023-03-23T14:29:12;13.80;99.90
5492;DHT22;2768;53.540;10.224;2023-03-23T14:35:12;13.30;99.90
5492;DHT22;2768;53.540;10.224;2023-03-23T14:41:05;13.60;1.00
5492;DHT22;2768;53.540;10.224;2023-03-23T14:47:01;14.60;1.00
5492;DHT22;2768;53.540;10.224;2023-03-23T14:52:59;13.20;99.90
5492;DHT22;2768;53.540;10.224;2023-03-23T14:58:52;12.60;1.00
5492;DHT22;2768;53.540;10.224;2023-03-23T15:04:46;13.50;1.00
5492;DHT22;2768;53.540;10.224;2023-03-23T15:10:41;13.90;99.90
5492;DHT22;2768;53.540;10.224;2023-03-23T15:16:35;14.50;99.90
5492;DHT22;2768;53.540;10.224;2023-03-23T15:22:31;13.50;99.90
5492;DHT22;2768;53.540;10.224;2023-03-23T15:28:30;12.90;99.90
5492;DHT22;2768;53.540;10.224;2023-03-23T15:34:29;12.60;99.90
5492;DHT22;2768;53.540;10.224;2023-03-23T15:40:24;12.50;99.90
5492;DHT22;2768;53.540;10.224;2023-03-23T15:46:23;12.50;99.90
5492;DHT22;2768;53.540;10.224;2023-03-23T15:52:16;12.40;99.90
5492;DHT22;2768;53.540;10.224;2023-03-23T15:58:10;12.40;99.90
5492;DHT22;2768;53.540;10.224;2023-03-23T16:04:07;12.90;99.90
5492;DHT22;2768;53.540;10.224;2023-03-23T16:10:01;12.80;99.90
5492;DHT22;2768;53.540;10.224;2023-03-23T16:15:55;12.60;99.90
5492;DHT22;2768;53.540;10.224;2023-03-23T16:21:50;12.50;99.90
5492;DHT22;2768;53.540;10.224;2023-03-23T16:27:44;12.50;99.90
5492;DHT22;2768;53.540;10.224;2023-03-23T16:33:43;12.50;99.90
5492;DHT22;2768;53.540;10.224;2023-03-23T16:39:40;12.30;99.90
5492;DHT22;2768;53.540;10.224;2023-03-23T16:45:34;12.30;99.90
5492;DHT22;2768;53.540;10.224;2023-03-23T16:51:27;12.20;99.90
5492;DHT22;2768;53.540;10.224;2023-03-23T16:57:22;12.30;99.90
5492;DHT22;2768;53.540;10.224;2023-03-23T17:03:16;12.30;99.90
5492;DHT22;2768;53.540;10.224;2023-03-23T17:09:10;12.20;99.90
5492;DHT22;2768;53.540;10.224;2023-03-23T17:15:06;12.10;99.90
5492;DHT22;2768;53.540;10.224;2023-03-23T17:20:59;12.00;99.90
5492;DHT22;2768;53.540;10.224;2023-03-23T17:26:53;12.00;99.90
5492;DHT22;2768;53.540;10.224;2023-03-23T17:32:48;12.10;99.90
5492;DHT22;2768;53.540;10.224;2023-03-23T17:38:42;12.00;99.90
5492;DHT22;2768;53.540;10.224;2023-03-23T17:44:35;12.00;99.90
5492;DHT22;2768;53.540;10.224;2023-03-23T17:50:30;12.00;99.90
5492;DHT22;2768;53.540;10.224;2023-03-23T17:56:23;11.90;99.90
5492;DHT22;2768;53.540;10.224;2023-03-23T18:02:17;11.80;99.90
5492;DHT22;2768;53.540;10.224;2023-03-23T18:08:12;11.80;1.00
5492;DHT22;2768;53.540;10.224;2023-03-23T18:14:06;11.70;1.00
5492;DHT22;2768;53.540;10.224;2023-03-23T18:20:00;11.50;1.00
5492;DHT22;2768;53.540;10.224;2023-03-23T18:25:55;11.50;1.00
5492;DHT22;2768;53.540;10.224;2023-03-23T18:31:48;11.40;1.00
5492;DHT22;2768;53.540;10.224;2023-03-23T18:37:42;11.40;1.00
5492;DHT22;2768;53.540;10.224;2023-03-23T18:43:37;11.40;1.00
5492;DHT22;2768;53.540;10.224;2023-03-23T18:49:30;11.40;1.00
5492;DHT22;2768;53.540;10.224;2023-03-23T18:55:25;11.40;1.00
5492;DHT22;2768;53.540;10.224;2023-03-23T19:01:20;11.40;1.00
5492;DHT22;2768;53.540;10.224;2023-03-23T19:07:14;11.30;1.00
5492;DHT22;2768;53.540;10.224;2023-03-23T19:13:08;11.40;1.00
5492;DHT22;2768;53.540;10.224;2023-03-23T19:19:04;11.30;1.00
5492;DHT22;2768;53.540;10.224;2023-03-23T19:24:58;11.40;1.00
5492;DHT22;2768;53.540;10.224;2023-03-23T19:30:53;11.20;1.00
5492;DHT22;2768;53.540;10.224;2023-03-23T19:36:48;11.20;1.00
5492;DHT22;2768;53.540;10.224;2023-03-23T19:42:55;11.20;1.00
5492;DHT22;2768;53.540;10.224;2023-03-23T19:48:49;11.20;1.00
5492;DHT22;2768;53.540;10.224;2023-03-23T19:54:44;11.20;1.00
5492;DHT22;2768;53.540;10.224;2023-03-23T20:00:38;11.20;1.00
5492;DHT22;2768;53.540;10.224;2023-03-23T20:06:32;11.10;1.00
5492;DHT22;2768;53.540;10.224;2023-03-23T20:12:26;11.10;1.00
5492;DHT22;2768;53.540;10.224;2023-03-23T20:18:19;11.20;1.00
5492;DHT22;2768;53.540;10.224;2023-03-23T20:24:13;11.20;1.00
5492;DHT22;2768;53.540;10.224;2023-03-23T20:30:09;11.10;1.00
5492;DHT22;2768;53.540;10.224;2023-03-23T20:36:04;11.10;1.00
5492;DHT22;2768;53.540;10.224;2023-03-23T20:42:01;11.10;1.00
5492;DHT22;2768;53.540;10.224;2023-03-23T20:47:58;11.00;1.00
5492;DHT22;2768;53.540;10.224;2023-03-23T20:53:53;11.10;1.00
5492;DHT22;2768;53.540;10.224;2023-03-23T20:59:47;11.00;1.00
5492;DHT22;2768;53.540;10.224;2023-03-23T21:05:42;11.00;1.00
5492;DHT22;2768;53.540;10.224;2023-03-23T21:11:36;11.00;1.00
5492;DHT22;2768;53.540;10.224;2023-03-23T21:17:29;11.00;1.00
5492;DHT22;2768;53.540;10.224;2023-03-23T21:23:24;11.10;1.00
5492;DHT22;2768;53.540;10.224;2023-03-23T21:29:18;11.00;1.00
5492;DHT22;2768;53.540;10.224;2023-03-23T21:35:13;11.00;1.00
5492;DHT22;2768;53.540;10.224;2023-03-23T21:41:09;11.00;1.00
5492;DHT22;2768;53.540;10.224;2023-03-23T21:47:03;11.00;1.00
5492;DHT22;2768;53.540;10.224;2023-03-23T21:52:56;11.10;1.00
5492;DHT22;2768;53.540;10.224;2023-03-23T21:58:51;11.00;1.00
5492;DHT22;2768;53.540;10.224;2023-03-23T22:04:44;11.00;1.00
5492;DHT22;2768;53.540;10.224;2023-03-23T22:10:39;11.10;1.00
5492;DHT22;2768;53.540;10.224;2023-03-23T22:16:34;11.10;1.00
5492;DHT22;2768;53.540;10.224;2023-03-23T22:22:28;11.10;1.00
5492;DHT22;2768;53.540;10.224;2023-03-23T22:28:22;11.10;1.00
5492;DHT22;2768;53.540;10.224;2023-03-23T22:34:19;11.20;1.00
5492;DHT22;2768;53.540;10.224;2023-03-23T22:40:13;11.20;1.00
5492;DHT22;2768;53.540;10.224;2023-03-23T22:46:06;11.10;1.00
5492;DHT22;2768;53.540;10.224;2023-03-23T22:52:02;11.20;1.00
5492;DHT22;2768;53.540;10.224;2023-03-23T22:57:55;11.20;1.00
5492;DHT22;2768;53.540;10.224;2023-03-23T23:03:49;11.20;1.00
5492;DHT22;2768;53.540;10.224;2023-03-23T23:09:44;11.30;1.00
5492;DHT22;2768;53.540;10.224;2023-03-23T23:15:41;11.30;1.00
5492;DHT22;2768;53.540;10.224;2023-03-23T23:21:35;11.20;1.00
5492;DHT22;2768;53.540;10.224;2023-03-23T23:27:30;11.30;1.00
5492;DHT22;2768;53.540;10.224;2023-03-23T23:33:23;11.20;1.00
5492;DHT22;2768;53.540;10.224;2023-03-23T23:39:17;11.30;1.00
5492;DHT22;2768;53.540;10.224;2023-03-23T23:45:13;11.30;1.00
5492;DHT22;2768;53.540;10.224;2023-03-23T23:51:07;11.30;1.00
5492;DHT22;2768;53.540;10.224;2023-03-23T23:57:01;11.30;1.00
